DRRN/NIM METAR and TAF weather

Enter ICAO airport designator
Station Type Date Time Source
DRRN METAR 2019/06/16 06:00 UTC NOAA

DRRN 160600Z 24007KT CAVOK 30/21 Q1012 NOSIG


Station Type Date Time Source
DRRN Decoded METAR 2019/06/16 06:00 UTC NOAA

Niamey-Aero, Niger (DRRN) 13-29N 002-10E 227M
Jun 16, 2019 - 02:00 AM EDT / 2019.06.16 0600 UTC
Wind: from the WSW (240 degrees) at 8 MPH (7 KT):0
Visibility: greater than 7 mile(s):0
Temperature: 86 F (30 C)
Dew Point: 69 F (21 C)
Relative Humidity: 58%
Pressure (altimeter): 29.88 in. Hg (1012 hPa)
ob: DRRN 160600Z 24007KT CAVOK 30/21 Q1012 NOSIG
cycle: 6

Station Type Date Time Source
DRRN TAF 2019/06/16 06:39 UTC NOAA

TAF DRRN 160500Z 1606/1712 23010KT 8000 FEW030 PROB30
TEMPO 1618/1622 VRB25KT 2000 BLDU TSRA FEW040CB

Example: see airport list